sensor_id;sensor_type;location;lat;lon;timestamp;temperature;humidity
9486;DHT22;4781;48.776;9.200;2023-01-10T00:01:54;5.00;99.90
9486;DHT22;4781;48.776;9.200;2023-01-10T00:04:23;5.00;99.90
9486;DHT22;4781;48.776;9.200;2023-01-10T00:06:56;5.00;99.90
9486;DHT22;4781;48.776;9.200;2023-01-10T00:09:24;5.00;99.90
9486;DHT22;4781;48.776;9.200;2023-01-10T00:11:53;5.00;99.90
9486;DHT22;4781;48.776;9.200;2023-01-10T00:14:39;5.10;99.90
9486;DHT22;4781;48.776;9.200;2023-01-10T00:17:07;5.10;99.90
9486;DHT22;4781;48.776;9.200;2023-01-10T00:19:36;5.10;99.90
9486;DHT22;4781;48.776;9.200;2023-01-10T00:22:04;5.10;99.90
9486;DHT22;4781;48.776;9.200;2023-01-10T00:24:34;5.10;99.90
9486;DHT22;4781;48.776;9.200;2023-01-10T00:27:04;5.10;99.90
9486;DHT22;4781;48.776;9.200;2023-01-10T00:29:34;5.10;99.90
9486;DHT22;4781;48.776;9.200;2023-01-10T00:32:03;5.10;99.90
9486;DHT22;4781;48.776;9.200;2023-01-10T00:34:31;5.10;99.90
9486;DHT22;4781;48.776;9.200;2023-01-10T00:37:00;5.10;99.90
9486;DHT22;4781;48.776;9.200;2023-01-10T00:39:29;5.10;99.90
9486;DHT22;4781;48.776;9.200;2023-01-10T00:41:57;5.10;99.90
9486;DHT22;4781;48.776;9.200;2023-01-10T00:44:43;5.10;99.90
9486;DHT22;4781;48.776;9.200;2023-01-10T00:47:12;5.10;99.90
9486;DHT22;4781;48.776;9.200;2023-01-10T00:49:41;5.00;99.90
9486;DHT22;4781;48.776;9.200;2023-01-10T00:52:09;5.00;99.90
9486;DHT22;4781;48.776;9.200;2023-01-10T00:54:37;5.00;99.90
9486;DHT22;4781;48.776;9.200;2023-01-10T00:57:06;5.00;99.90
9486;DHT22;4781;48.776;9.200;2023-01-10T00:59:34;5.00;99.90
9486;DHT22;4781;48.776;9.200;2023-01-10T01:02:03;5.00;99.90
9486;DHT22;4781;48.776;9.200;2023-01-10T01:04:31;5.00;99.90
9486;DHT22;4781;48.776;9.200;2023-01-10T01:07:00;5.00;99.90
9486;DHT22;4781;48.776;9.200;2023-01-10T01:09:29;5.00;99.90
9486;DHT22;4781;48.776;9.200;2023-01-10T01:11:58;5.00;99.90
9486;DHT22;4781;48.776;9.200;2023-01-10T01:14:26;5.00;99.90
9486;DHT22;4781;48.776;9.200;2023-01-10T01:16:54;5.00;99.90
9486;DHT22;4781;48.776;9.200;2023-01-10T01:19:23;5.00;99.90
9486;DHT22;4781;48.776;9.200;2023-01-10T01:21:52;5.00;99.90
9486;DHT22;4781;48.776;9.200;2023-01-10T01:24:21;5.10;99.90
9486;DHT22;4781;48.776;9.200;2023-01-10T01:26:50;5.10;99.90
9486;DHT22;4781;48.776;9.200;2023-01-10T01:29:18;5.10;99.90
9486;DHT22;4781;48.776;9.200;2023-01-10T01:31:47;5.10;99.90
9486;DHT22;4781;48.776;9.200;2023-01-10T01:34:15;5.10;99.90
9486;DHT22;4781;48.776;9.200;2023-01-10T01:36:45;5.10;99.90
9486;DHT22;4781;48.776;9.200;2023-01-10T01:39:14;5.20;99.90
9486;DHT22;4781;48.776;9.200;2023-01-10T01:41:42;5.10;99.90
9486;DHT22;4781;48.776;9.200;2023-01-10T01:44:26;5.20;99.90
9486;DHT22;4781;48.776;9.200;2023-01-10T01:49:35;5.20;99.90
9486;DHT22;4781;48.776;9.200;2023-01-10T01:52:20;5.20;99.90
9486;DHT22;4781;48.776;9.200;2023-01-10T01:55:04;5.20;99.90
9486;DHT22;4781;48.776;9.200;2023-01-10T01:57:34;5.20;99.90
9486;DHT22;4781;48.776;9.200;2023-01-10T02:00:04;5.20;99.90
9486;DHT22;4781;48.776;9.200;2023-01-10T02:02:40;5.20;99.90
9486;DHT22;4781;48.776;9.200;2023-01-10T02:05:14;5.20;99.90
9486;DHT22;4781;48.776;9.200;2023-01-10T02:07:45;5.20;99.90
9486;DHT22;4781;48.776;9.200;2023-01-10T02:10:25;5.20;99.90
9486;DHT22;4781;48.776;9.200;2023-01-10T02:13:24;5.20;99.90
9486;DHT22;4781;48.776;9.200;2023-01-10T02:15:53;5.20;99.90
9486;DHT22;4781;48.776;9.200;2023-01-10T02:18:22;5.10;99.90
9486;DHT22;4781;48.776;9.200;2023-01-10T02:21:33;5.10;99.90
9486;DHT22;4781;48.776;9.200;2023-01-10T02:24:16;5.10;99.90
9486;DHT22;4781;48.776;9.200;2023-01-10T02:27:09;5.10;99.90
9486;DHT22;4781;48.776;9.200;2023-01-10T02:33:40;5.00;99.90
9486;DHT22;4781;48.776;9.200;2023-01-10T02:35:43;5.00;99.90
9486;DHT22;4781;48.776;9.200;2023-01-10T02:43:55;4.90;99.90
9486;DHT22;4781;48.776;9.200;2023-01-10T02:46:29;4.90;99.90
9486;DHT22;4781;48.776;9.200;2023-01-10T02:48:58;4.90;99.90
9486;DHT22;4781;48.776;9.200;2023-01-10T02:51:30;4.80;99.90
9486;DHT22;4781;48.776;9.200;2023-01-10T02:54:02;4.80;99.90
9486;DHT22;4781;48.776;9.200;2023-01-10T03:03:01;4.60;99.90
9486;DHT22;4781;48.776;9.200;2023-01-10T03:08:42;4.60;99.90
9486;DHT22;4781;48.776;9.200;2023-01-10T03:11:30;4.60;99.90
9486;DHT22;4781;48.776;9.200;2023-01-10T03:14:23;4.60;99.90
9486;DHT22;4781;48.776;9.200;2023-01-10T03:17:01;4.60;99.90
9486;DHT22;4781;48.776;9.200;2023-01-10T03:19:33;4.60;99.90
9486;DHT22;4781;48.776;9.200;2023-01-10T03:22:05;4.60;99.90
9486;DHT22;4781;48.776;9.200;2023-01-10T03:24:40;4.60;99.90
9486;DHT22;4781;48.776;9.200;2023-01-10T03:27:19;4.60;99.90
9486;DHT22;4781;48.776;9.200;2023-01-10T03:30:11;4.60;99.90
9486;DHT22;4781;48.776;9.200;2023-01-10T03:32:42;4.60;99.90
9486;DHT22;4781;48.776;9.200;2023-01-10T03:35:12;4.60;99.90
9486;DHT22;4781;48.776;9.200;2023-01-10T03:37:56;4.60;99.90
9486;DHT22;4781;48.776;9.200;2023-01-10T03:40:52;4.60;99.90
9486;DHT22;4781;48.776;9.200;2023-01-10T03:46:35;4.60;99.90
9486;DHT22;4781;48.776;9.200;2023-01-10T03:49:07;4.60;99.90
9486;DHT22;4781;48.776;9.200;2023-01-10T03:51:37;4.60;99.90
9486;DHT22;4781;48.776;9.200;2023-01-10T03:54:06;4.60;99.90
9486;DHT22;4781;48.776;9.200;2023-01-10T03:59:37;4.60;99.90
9486;DHT22;4781;48.776;9.200;2023-01-10T04:02:06;4.60;99.90
9486;DHT22;4781;48.776;9.200;2023-01-10T04:04:34;4.60;99.90
9486;DHT22;4781;48.776;9.200;2023-01-10T04:07:02;4.50;99.90
9486;DHT22;4781;48.776;9.200;2023-01-10T04:09:31;4.60;99.90
9486;DHT22;4781;48.776;9.200;2023-01-10T04:11:59;4.60;99.90
9486;DHT22;4781;48.776;9.200;2023-01-10T04:14:28;4.50;99.90
9486;DHT22;4781;48.776;9.200;2023-01-10T04:16:58;4.50;99.90
9486;DHT22;4781;48.776;9.200;2023-01-10T04:19:26;4.50;99.90
9486;DHT22;4781;48.776;9.200;2023-01-10T04:21:55;4.50;99.90
9486;DHT22;4781;48.776;9.200;2023-01-10T04:24:23;4.50;99.90
9486;DHT22;4781;48.776;9.200;2023-01-10T04:26:51;4.50;99.90
9486;DHT22;4781;48.776;9.200;2023-01-10T04:29:20;4.50;99.90
9486;DHT22;4781;48.776;9.200;2023-01-10T04:31:48;4.50;99.90
9486;DHT22;4781;48.776;9.200;2023-01-10T04:34:17;4.50;99.90
9486;DHT22;4781;48.776;9.200;2023-01-10T04:36:48;4.50;99.90
9486;DHT22;4781;48.776;9.200;2023-01-10T04:39:17;4.50;99.90
9486;DHT22;4781;48.776;9.200;2023-01-10T04:41:45;4.50;99.90
9486;DHT22;4781;48.776;9.200;2023-01-10T04:44:14;4.50;99.90
9486;DHT22;4781;48.776;9.200;2023-01-10T04:46:42;4.50;99.90
9486;DHT22;4781;48.776;9.200;2023-01-10T04:49:11;4.40;99.90
9486;DHT22;4781;48.776;9.200;2023-01-10T04:51:39;4.40;99.90
9486;DHT22;4781;48.776;9.200;2023-01-10T04:54:07;4.40;99.90
9486;DHT22;4781;48.776;9.200;2023-01-10T04:56:36;4.40;99.90
9486;DHT22;4781;48.776;9.200;2023-01-10T04:59:05;4.40;99.90
9486;DHT22;4781;48.776;9.200;2023-01-10T05:01:34;4.40;99.90
9486;DHT22;4781;48.776;9.200;2023-01-10T05:04:05;4.40;99.90
9486;DHT22;4781;48.776;9.200;2023-01-10T05:06:33;4.40;99.90
9486;DHT22;4781;48.776;9.200;2023-01-10T05:09:02;4.40;99.90
9486;DHT22;4781;48.776;9.200;2023-01-10T05:11:31;4.40;99.90
9486;DHT22;4781;48.776;9.200;2023-01-10T05:13:59;4.40;99.90
9486;DHT22;4781;48.776;9.200;2023-01-10T05:16:28;4.40;99.90
9486;DHT22;4781;48.776;9.200;2023-01-10T05:18:56;4.40;99.90
9486;DHT22;4781;48.776;9.200;2023-01-10T05:21:25;4.40;99.90
9486;DHT22;4781;48.776;9.200;2023-01-10T05:23:53;4.40;99.90
9486;DHT22;4781;48.776;9.200;2023-01-10T05:26:25;4.40;99.90
9486;DHT22;4781;48.776;9.200;2023-01-10T05:28:54;4.40;99.90
9486;DHT22;4781;48.776;9.200;2023-01-10T05:31:22;4.40;99.90
9486;DHT22;4781;48.776;9.200;2023-01-10T05:33:51;4.50;99.90
9486;DHT22;4781;48.776;9.200;2023-01-10T05:36:19;4.50;99.90
9486;DHT22;4781;48.776;9.200;2023-01-10T05:38:48;4.50;99.90
9486;DHT22;4781;48.776;9.200;2023-01-10T05:41:16;4.50;99.90
9486;DHT22;4781;48.776;9.200;2023-01-10T05:43:44;4.50;99.90
9486;DHT22;4781;48.776;9.200;2023-01-10T05:46:13;4.50;99.90
9486;DHT22;4781;48.776;9.200;2023-01-10T05:48:42;4.50;99.90
9486;DHT22;4781;48.776;9.200;2023-01-10T05:51:10;4.60;99.90
9486;DHT22;4781;48.776;9.200;2023-01-10T05:53:38;4.60;99.90
9486;DHT22;4781;48.776;9.200;2023-01-10T05:56:07;4.60;99.90
9486;DHT22;4781;48.776;9.200;2023-01-10T05:58:36;4.60;99.90
9486;DHT22;4781;48.776;9.200;2023-01-10T06:01:04;4.60;99.90
9486;DHT22;4781;48.776;9.200;2023-01-10T06:03:32;4.60;99.90
9486;DHT22;4781;48.776;9.200;2023-01-10T06:06:01;4.60;99.90
9486;DHT22;4781;48.776;9.200;2023-01-10T06:08:29;4.60;99.90
9486;DHT22;4781;48.776;9.200;2023-01-10T06:10:58;4.60;99.90
9486;DHT22;4781;48.776;9.200;2023-01-10T06:13:26;4.60;99.90
9486;DHT22;4781;48.776;9.200;2023-01-10T06:15:55;4.70;99.90
9486;DHT22;4781;48.776;9.200;2023-01-10T06:18:23;4.70;99.90
9486;DHT22;4781;48.776;9.200;2023-01-10T06:20:52;4.70;99.90
9486;DHT22;4781;48.776;9.200;2023-01-10T06:23:20;4.70;99.90
9486;DHT22;4781;48.776;9.200;2023-01-10T06:25:48;4.70;99.90
9486;DHT22;4781;48.776;9.200;2023-01-10T06:28:17;4.70;99.90
9486;DHT22;4781;48.776;9.200;2023-01-10T06:30:45;4.70;99.90
9486;DHT22;4781;48.776;9.200;2023-01-10T06:33:14;4.70;99.90
9486;DHT22;4781;48.776;9.200;2023-01-10T06:35:43;4.70;99.90
9486;DHT22;4781;48.776;9.200;2023-01-10T06:38:13;4.70;99.90
9486;DHT22;4781;48.776;9.200;2023-01-10T06:40:42;4.70;99.90
9486;DHT22;4781;48.776;9.200;2023-01-10T06:43:10;4.70;99.90
9486;DHT22;4781;48.776;9.200;2023-01-10T06:45:39;4.70;99.90
9486;DHT22;4781;48.776;9.200;2023-01-10T06:48:07;4.70;99.90
9486;DHT22;4781;48.776;9.200;2023-01-10T06:50:36;4.70;99.90
9486;DHT22;4781;48.776;9.200;2023-01-10T06:53:04;4.70;99.90
9486;DHT22;4781;48.776;9.200;2023-01-10T06:55:32;4.70;99.90
9486;DHT22;4781;48.776;9.200;2023-01-10T06:58:02;4.70;99.90
9486;DHT22;4781;48.776;9.200;2023-01-10T07:00:31;4.70;99.90
9486;DHT22;4781;48.776;9.200;2023-01-10T07:03:00;4.70;99.90
9486;DHT22;4781;48.776;9.200;2023-01-10T07:05:29;4.70;99.90
9486;DHT22;4781;48.776;9.200;2023-01-10T07:07:57;4.70;99.90
9486;DHT22;4781;48.776;9.200;2023-01-10T07:10:27;4.70;99.90
9486;DHT22;4781;48.776;9.200;2023-01-10T07:12:55;4.70;99.90
9486;DHT22;4781;48.776;9.200;2023-01-10T07:15:26;4.70;99.90
9486;DHT22;4781;48.776;9.200;2023-01-10T07:17:58;4.70;99.90
9486;DHT22;4781;48.776;9.200;2023-01-10T07:20:27;4.70;99.90
9486;DHT22;4781;48.776;9.200;2023-01-10T07:22:59;4.70;99.90
9486;DHT22;4781;48.776;9.200;2023-01-10T07:25:28;4.70;99.90
9486;DHT22;4781;48.776;9.200;2023-01-10T07:27:57;4.70;99.90
9486;DHT22;4781;48.776;9.200;2023-01-10T07:30:25;4.70;99.90
9486;DHT22;4781;48.776;9.200;2023-01-10T07:32:57;4.70;99.90
9486;DHT22;4781;48.776;9.200;2023-01-10T07:35:26;4.70;99.90
9486;DHT22;4781;48.776;9.200;2023-01-10T07:37:57;4.70;99.90
9486;DHT22;4781;48.776;9.200;2023-01-10T07:40:26;4.70;99.90
9486;DHT22;4781;48.776;9.200;2023-01-10T07:42:58;4.70;99.90
9486;DHT22;4781;48.776;9.200;2023-01-10T07:45:28;4.70;99.90
9486;DHT22;4781;48.776;9.200;2023-01-10T07:47:58;4.80;99.90
9486;DHT22;4781;48.776;9.200;2023-01-10T07:50:30;4.80;99.90
9486;DHT22;4781;48.776;9.200;2023-01-10T07:53:02;4.80;99.90
9486;DHT22;4781;48.776;9.200;2023-01-10T07:55:31;4.80;99.90
9486;DHT22;4781;48.776;9.200;2023-01-10T07:58:01;4.80;99.90
9486;DHT22;4781;48.776;9.200;2023-01-10T08:00:29;4.80;99.90
9486;DHT22;4781;48.776;9.200;2023-01-10T08:02:58;4.80;99.90
9486;DHT22;4781;48.776;9.200;2023-01-10T08:05:26;4.90;99.90
9486;DHT22;4781;48.776;9.200;2023-01-10T08:07:55;4.80;99.90
9486;DHT22;4781;48.776;9.200;2023-01-10T08:10:26;4.80;99.90
9486;DHT22;4781;48.776;9.200;2023-01-10T08:12:54;4.90;99.90
9486;DHT22;4781;48.776;9.200;2023-01-10T08:15:23;4.90;99.90
9486;DHT22;4781;48.776;9.200;2023-01-10T08:17:51;4.90;99.90
9486;DHT22;4781;48.776;9.200;2023-01-10T08:20:20;4.90;99.90
9486;DHT22;4781;48.776;9.200;2023-01-10T08:22:48;4.90;99.90
9486;DHT22;4781;48.776;9.200;2023-01-10T08:25:17;5.00;99.90
9486;DHT22;4781;48.776;9.200;2023-01-10T08:27:45;5.00;99.90
9486;DHT22;4781;48.776;9.200;2023-01-10T08:30:13;5.00;99.90
9486;DHT22;4781;48.776;9.200;2023-01-10T08:32:42;5.00;99.90
9486;DHT22;4781;48.776;9.200;2023-01-10T08:35:11;5.00;99.90
9486;DHT22;4781;48.776;9.200;2023-01-10T08:37:39;5.00;99.90
9486;DHT22;4781;48.776;9.200;2023-01-10T08:40:08;5.00;99.90
9486;DHT22;4781;48.776;9.200;2023-01-10T08:42:37;5.00;99.90
9486;DHT22;4781;48.776;9.200;2023-01-10T08:45:06;5.10;99.90
9486;DHT22;4781;48.776;9.200;2023-01-10T08:47:35;5.10;99.90
9486;DHT22;4781;48.776;9.200;2023-01-10T08:50:04;5.10;99.90
9486;DHT22;4781;48.776;9.200;2023-01-10T08:52:32;5.10;99.90
9486;DHT22;4781;48.776;9.200;2023-01-10T08:55:01;5.20;99.90
9486;DHT22;4781;48.776;9.200;2023-01-10T08:57:29;5.20;99.90
9486;DHT22;4781;48.776;9.200;2023-01-10T08:59:57;5.20;99.90
9486;DHT22;4781;48.776;9.200;2023-01-10T09:02:26;5.20;99.90
9486;DHT22;4781;48.776;9.200;2023-01-10T09:04:54;5.20;99.90
9486;DHT22;4781;48.776;9.200;2023-01-10T09:07:23;5.20;99.90
9486;DHT22;4781;48.776;9.200;2023-01-10T09:09:51;5.30;99.90
9486;DHT22;4781;48.776;9.200;2023-01-10T09:12:19;5.30;99.90
9486;DHT22;4781;48.776;9.200;2023-01-10T09:15:06;5.30;99.90
9486;DHT22;4781;48.776;9.200;2023-01-10T09:17:35;5.30;99.90
9486;DHT22;4781;48.776;9.200;2023-01-10T09:20:04;5.30;99.90
9486;DHT22;4781;48.776;9.200;2023-01-10T09:22:35;5.30;99.90
9486;DHT22;4781;48.776;9.200;2023-01-10T09:25:04;5.30;99.90
9486;DHT22;4781;48.776;9.200;2023-01-10T09:27:33;5.30;99.90
9486;DHT22;4781;48.776;9.200;2023-01-10T09:30:03;5.30;99.90
9486;DHT22;4781;48.776;9.200;2023-01-10T09:32:31;5.30;99.90
9486;DHT22;4781;48.776;9.200;2023-01-10T09:35:01;5.30;99.90
9486;DHT22;4781;48.776;9.200;2023-01-10T09:37:30;5.40;99.90
9486;DHT22;4781;48.776;9.200;2023-01-10T09:40:00;5.30;99.90
9486;DHT22;4781;48.776;9.200;2023-01-10T09:43:33;5.20;99.90
9486;DHT22;4781;48.776;9.200;2023-01-10T09:45:31;5.30;99.90
9486;DHT22;4781;48.776;9.200;2023-01-10T09:53:56;5.20;99.90
9486;DHT22;4781;48.776;9.200;2023-01-10T09:56:27;5.30;99.90
9486;DHT22;4781;48.776;9.200;2023-01-10T09:58:58;5.30;99.90
9486;DHT22;4781;48.776;9.200;2023-01-10T10:01:34;5.30;99.90
9486;DHT22;4781;48.776;9.200;2023-01-10T10:04:21;5.30;99.90
9486;DHT22;4781;48.776;9.200;2023-01-10T10:07:04;5.20;99.90
9486;DHT22;4781;48.776;9.200;2023-01-10T10:09:34;5.20;99.90
9486;DHT22;4781;48.776;9.200;2023-01-10T10:12:40;5.20;99.90
9486;DHT22;4781;48.776;9.200;2023-01-10T10:15:31;5.20;99.90
9486;DHT22;4781;48.776;9.200;2023-01-10T10:21:22;5.30;99.90
9486;DHT22;4781;48.776;9.200;2023-01-10T10:27:32;5.60;99.90
9486;DHT22;4781;48.776;9.200;2023-01-10T10:35:40;5.60;99.90
9486;DHT22;4781;48.776;9.200;2023-01-10T10:38:23;5.60;99.90
9486;DHT22;4781;48.776;9.200;2023-01-10T10:40:56;5.70;99.90
9486;DHT22;4781;48.776;9.200;2023-01-10T10:43:33;5.70;99.90
9486;DHT22;4781;48.776;9.200;2023-01-10T10:46:07;5.70;99.90
9486;DHT22;4781;48.776;9.200;2023-01-10T10:48:41;5.70;99.90
9486;DHT22;4781;48.776;9.200;2023-01-10T10:51:22;5.70;99.90
9486;DHT22;4781;48.776;9.200;2023-01-10T10:54:06;5.70;99.90
9486;DHT22;4781;48.776;9.200;2023-01-10T10:56:37;5.80;99.90
9486;DHT22;4781;48.776;9.200;2023-01-10T10:59:06;5.90;99.90
9486;DHT22;4781;48.776;9.200;2023-01-10T11:01:35;5.90;99.90
9486;DHT22;4781;48.776;9.200;2023-01-10T11:04:09;6.00;99.90
9486;DHT22;4781;48.776;9.200;2023-01-10T11:06:57;6.00;99.90
9486;DHT22;4781;48.776;9.200;2023-01-10T11:09:26;6.00;99.90
9486;DHT22;4781;48.776;9.200;2023-01-10T11:12:03;6.00;99.90
9486;DHT22;4781;48.776;9.200;2023-01-10T11:14:44;5.90;99.90
9486;DHT22;4781;48.776;9.200;2023-01-10T11:17:28;5.90;99.90
9486;DHT22;4781;48.776;9.200;2023-01-10T11:20:03;5.80;99.90
9486;DHT22;4781;48.776;9.200;2023-01-10T11:22:49;5.80;99.90
9486;DHT22;4781;48.776;9.200;2023-01-10T11:25:21;5.80;99.90
9486;DHT22;4781;48.776;9.200;2023-01-10T11:27:56;5.80;99.90
9486;DHT22;4781;48.776;9.200;2023-01-10T11:30:31;5.80;99.90
9486;DHT22;4781;48.776;9.200;2023-01-10T11:33:02;5.90;99.90
9486;DHT22;4781;48.776;9.200;2023-01-10T11:35:34;5.90;99.90
9486;DHT22;4781;48.776;9.200;2023-01-10T11:38:18;6.10;99.90
9486;DHT22;4781;48.776;9.200;2023-01-10T11:41:03;6.10;99.90
9486;DHT22;4781;48.776;9.200;2023-01-10T11:43:45;6.10;99.90
9486;DHT22;4781;48.776;9.200;2023-01-10T11:46:21;6.20;99.90
9486;DHT22;4781;48.776;9.200;2023-01-10T11:49:03;6.20;99.90
9486;DHT22;4781;48.776;9.200;2023-01-10T11:51:42;6.20;99.90
9486;DHT22;4781;48.776;9.200;2023-01-10T11:54:09;6.10;99.90
9486;DHT22;4781;48.776;9.200;2023-01-10T11:56:38;6.20;99.90
9486;DHT22;4781;48.776;9.200;2023-01-10T11:59:16;6.20;99.90
9486;DHT22;4781;48.776;9.200;2023-01-10T12:01:52;6.20;99.90
9486;DHT22;4781;48.776;9.200;2023-01-10T12:04:18;6.30;99.90
9486;DHT22;4781;48.776;9.200;2023-01-10T12:06:54;6.40;99.90
9486;DHT22;4781;48.776;9.200;2023-01-10T12:12:30;6.50;99.90
9486;DHT22;4781;48.776;9.200;2023-01-10T12:14:56;6.50;99.90
9486;DHT22;4781;48.776;9.200;2023-01-10T12:17:30;6.50;99.90
9486;DHT22;4781;48.776;9.200;2023-01-10T12:20:00;6.60;99.90
9486;DHT22;4781;48.776;9.200;2023-01-10T12:22:44;6.50;99.90
9486;DHT22;4781;48.776;9.200;2023-01-10T12:25:19;6.60;99.90
9486;DHT22;4781;48.776;9.200;2023-01-10T12:27:49;6.60;99.90
9486;DHT22;4781;48.776;9.200;2023-01-10T12:30:28;6.60;99.90
9486;DHT22;4781;48.776;9.200;2023-01-10T12:33:00;6.60;99.90
9486;DHT22;4781;48.776;9.200;2023-01-10T12:35:41;6.60;99.90
9486;DHT22;4781;48.776;9.200;2023-01-10T12:45:11;6.50;99.90
9486;DHT22;4781;48.776;9.200;2023-01-10T12:47:59;6.50;99.90
9486;DHT22;4781;48.776;9.200;2023-01-10T12:50:43;6.60;99.90
9486;DHT22;4781;48.776;9.200;2023-01-10T12:53:42;6.60;99.90
9486;DHT22;4781;48.776;9.200;2023-01-10T12:56:09;6.70;99.90
9486;DHT22;4781;48.776;9.200;2023-01-10T12:58:42;6.60;99.90
9486;DHT22;4781;48.776;9.200;2023-01-10T13:01:20;6.60;99.90
9486;DHT22;4781;48.776;9.200;2023-01-10T13:03:48;6.60;99.90
9486;DHT22;4781;48.776;9.200;2023-01-10T13:06:32;6.50;99.90
9486;DHT22;4781;48.776;9.200;2023-01-10T13:09:12;6.60;99.90
9486;DHT22;4781;48.776;9.200;2023-01-10T13:12:09;6.50;99.90
9486;DHT22;4781;48.776;9.200;2023-01-10T13:17:41;6.60;99.90
9486;DHT22;4781;48.776;9.200;2023-01-10T13:21:23;6.70;99.90
9486;DHT22;4781;48.776;9.200;2023-01-10T13:23:22;6.70;99.90
9486;DHT22;4781;48.776;9.200;2023-01-10T13:25:56;6.60;99.90
9486;DHT22;4781;48.776;9.200;2023-01-10T13:28:27;6.60;99.90
9486;DHT22;4781;48.776;9.200;2023-01-10T13:30:59;6.60;99.90
9486;DHT22;4781;48.776;9.200;2023-01-10T13:33:54;6.60;99.90
9486;DHT22;4781;48.776;9.200;2023-01-10T13:39:53;6.60;99.90
9486;DHT22;4781;48.776;9.200;2023-01-10T13:45:24;6.70;99.90
9486;DHT22;4781;48.776;9.200;2023-01-10T14:00:54;6.80;99.90
9486;DHT22;4781;48.776;9.200;2023-01-10T14:03:51;6.80;99.90
9486;DHT22;4781;48.776;9.200;2023-01-10T14:09:05;6.80;99.90
9486;DHT22;4781;48.776;9.200;2023-01-10T14:11:50;6.80;99.90
9486;DHT22;4781;48.776;9.200;2023-01-10T14:14:31;6.90;99.90
9486;DHT22;4781;48.776;9.200;2023-01-10T14:17:19;6.90;99.90
9486;DHT22;4781;48.776;9.200;2023-01-10T14:19:45;6.90;99.90
9486;DHT22;4781;48.776;9.200;2023-01-10T14:22:28;7.00;99.90
9486;DHT22;4781;48.776;9.200;2023-01-10T14:24:59;7.00;99.90
9486;DHT22;4781;48.776;9.200;2023-01-10T14:27:49;7.00;99.90
9486;DHT22;4781;48.776;9.200;2023-01-10T14:30:25;7.00;99.90
9486;DHT22;4781;48.776;9.200;2023-01-10T14:32:51;7.00;99.90
9486;DHT22;4781;48.776;9.200;2023-01-10T14:35:23;7.00;99.90
9486;DHT22;4781;48.776;9.200;2023-01-10T14:38:24;6.80;99.90
9486;DHT22;4781;48.776;9.200;2023-01-10T14:40:59;6.80;99.90
9486;DHT22;4781;48.776;9.200;2023-01-10T14:44:09;6.80;99.90
9486;DHT22;4781;48.776;9.200;2023-01-10T14:46:47;6.70;99.90
9486;DHT22;4781;48.776;9.200;2023-01-10T14:49:28;6.70;99.90
9486;DHT22;4781;48.776;9.200;2023-01-10T14:54:46;6.60;99.90
9486;DHT22;4781;48.776;9.200;2023-01-10T14:57:21;6.50;99.90
9486;DHT22;4781;48.776;9.200;2023-01-10T14:59:59;6.50;99.90
9486;DHT22;4781;48.776;9.200;2023-01-10T15:02:45;6.50;99.90
9486;DHT22;4781;48.776;9.200;2023-01-10T15:05:20;6.40;99.90
9486;DHT22;4781;48.776;9.200;2023-01-10T15:07:54;6.40;99.90
9486;DHT22;4781;48.776;9.200;2023-01-10T15:10:37;6.30;99.90
9486;DHT22;4781;48.776;9.200;2023-01-10T15:13:02;6.30;99.90
9486;DHT22;4781;48.776;9.200;2023-01-10T15:15:34;6.20;99.90
9486;DHT22;4781;48.776;9.200;2023-01-10T15:18:52;6.20;99.90
9486;DHT22;4781;48.776;9.200;2023-01-10T15:23:50;6.10;99.90
9486;DHT22;4781;48.776;9.200;2023-01-10T15:26:28;6.10;99.90
9486;DHT22;4781;48.776;9.200;2023-01-10T15:29:22;6.10;99.90
9486;DHT22;4781;48.776;9.200;2023-01-10T15:31:53;6.10;99.90
9486;DHT22;4781;48.776;9.200;2023-01-10T15:34:25;6.00;99.90
9486;DHT22;4781;48.776;9.200;2023-01-10T15:36:57;6.00;99.90
9486;DHT22;4781;48.776;9.200;2023-01-10T15:39:32;6.00;99.90
9486;DHT22;4781;48.776;9.200;2023-01-10T15:42:08;5.90;99.90
9486;DHT22;4781;48.776;9.200;2023-01-10T15:44:40;5.90;99.90
9486;DHT22;4781;48.776;9.200;2023-01-10T15:47:49;5.90;99.90
9486;DHT22;4781;48.776;9.200;2023-01-10T15:50:34;5.90;99.90
9486;DHT22;4781;48.776;9.200;2023-01-10T15:53:08;5.90;99.90
9486;DHT22;4781;48.776;9.200;2023-01-10T15:55:43;5.80;99.90
9486;DHT22;4781;48.776;9.200;2023-01-10T15:58:31;5.80;99.90
9486;DHT22;4781;48.776;9.200;2023-01-10T16:01:01;5.70;99.90
9486;DHT22;4781;48.776;9.200;2023-01-10T16:03:42;5.70;99.90
9486;DHT22;4781;48.776;9.200;2023-01-10T16:06:25;5.70;99.90
9486;DHT22;4781;48.776;9.200;2023-01-10T16:09:06;5.70;99.90
9486;DHT22;4781;48.776;9.200;2023-01-10T16:11:39;5.70;99.90
9486;DHT22;4781;48.776;9.200;2023-01-10T16:14:27;5.60;99.90
9486;DHT22;4781;48.776;9.200;2023-01-10T16:16:56;5.60;99.90
9486;DHT22;4781;48.776;9.200;2023-01-10T16:19:24;5.60;99.90
9486;DHT22;4781;48.776;9.200;2023-01-10T16:21:54;5.50;99.90
9486;DHT22;4781;48.776;9.200;2023-01-10T16:24:27;5.50;99.90
9486;DHT22;4781;48.776;9.200;2023-01-10T16:26:58;5.50;99.90
9486;DHT22;4781;48.776;9.200;2023-01-10T16:29:31;5.50;99.90
9486;DHT22;4781;48.776;9.200;2023-01-10T16:32:00;5.40;99.90
9486;DHT22;4781;48.776;9.200;2023-01-10T16:34:28;5.40;99.90
9486;DHT22;4781;48.776;9.200;2023-01-10T16:36:58;5.40;99.90
9486;DHT22;4781;48.776;9.200;2023-01-10T16:39:27;5.40;99.90
9486;DHT22;4781;48.776;9.200;2023-01-10T16:41:55;5.30;99.90
9486;DHT22;4781;48.776;9.200;2023-01-10T16:44:41;5.40;99.90
9486;DHT22;4781;48.776;9.200;2023-01-10T16:47:10;5.30;99.90
9486;DHT22;4781;48.776;9.200;2023-01-10T16:49:39;5.30;99.90
9486;DHT22;4781;48.776;9.200;2023-01-10T16:52:11;5.30;99.90
9486;DHT22;4781;48.776;9.200;2023-01-10T16:54:40;5.30;99.90
9486;DHT22;4781;48.776;9.200;2023-01-10T16:57:08;5.30;99.90
9486;DHT22;4781;48.776;9.200;2023-01-10T16:59:37;5.20;99.90
9486;DHT22;4781;48.776;9.200;2023-01-10T17:02:14;5.20;99.90
9486;DHT22;4781;48.776;9.200;2023-01-10T17:04:41;5.20;99.90
9486;DHT22;4781;48.776;9.200;2023-01-10T17:07:11;5.20;99.90
9486;DHT22;4781;48.776;9.200;2023-01-10T17:09:39;5.20;99.90
9486;DHT22;4781;48.776;9.200;2023-01-10T17:12:12;5.20;99.90
9486;DHT22;4781;48.776;9.200;2023-01-10T17:14:40;5.20;99.90
9486;DHT22;4781;48.776;9.200;2023-01-10T17:17:10;5.20;99.90
9486;DHT22;4781;48.776;9.200;2023-01-10T17:19:39;5.20;99.90
9486;DHT22;4781;48.776;9.200;2023-01-10T17:22:13;5.20;99.90
9486;DHT22;4781;48.776;9.200;2023-01-10T17:24:42;5.20;99.90
9486;DHT22;4781;48.776;9.200;2023-01-10T17:27:10;5.20;99.90
9486;DHT22;4781;48.776;9.200;2023-01-10T17:29:39;5.20;99.90
9486;DHT22;4781;48.776;9.200;2023-01-10T17:32:07;5.20;99.90
9486;DHT22;4781;48.776;9.200;2023-01-10T17:34:36;5.20;99.90
9486;DHT22;4781;48.776;9.200;2023-01-10T17:37:05;5.20;99.90
9486;DHT22;4781;48.776;9.200;2023-01-10T17:39:33;5.20;99.90
9486;DHT22;4781;48.776;9.200;2023-01-10T17:42:04;5.20;99.90
9486;DHT22;4781;48.776;9.200;2023-01-10T17:44:33;5.20;99.90
9486;DHT22;4781;48.776;9.200;2023-01-10T17:47:01;5.20;99.90
9486;DHT22;4781;48.776;9.200;2023-01-10T17:49:29;5.20;99.90
9486;DHT22;4781;48.776;9.200;2023-01-10T17:51:58;5.20;99.90
9486;DHT22;4781;48.776;9.200;2023-01-10T17:54:27;5.20;99.90
9486;DHT22;4781;48.776;9.200;2023-01-10T17:56:55;5.20;99.90
9486;DHT22;4781;48.776;9.200;2023-01-10T17:59:23;5.20;99.90
9486;DHT22;4781;48.776;9.200;2023-01-10T18:01:52;5.20;99.90
9486;DHT22;4781;48.776;9.200;2023-01-10T18:04:20;5.20;99.90
9486;DHT22;4781;48.776;9.200;2023-01-10T18:06:49;5.20;99.90
9486;DHT22;4781;48.776;9.200;2023-01-10T18:09:18;5.20;99.90
9486;DHT22;4781;48.776;9.200;2023-01-10T18:11:46;5.20;99.90
9486;DHT22;4781;48.776;9.200;2023-01-10T18:14:14;5.20;99.90
9486;DHT22;4781;48.776;9.200;2023-01-10T18:17:01;5.20;99.90
9486;DHT22;4781;48.776;9.200;2023-01-10T18:19:33;5.20;99.90
9486;DHT22;4781;48.776;9.200;2023-01-10T18:22:03;5.20;99.90